Time;durP1;ratioP1;P1;durP2;ratioP2;P2;SDS_P1;SDS_P2;PMS_P1;PMS_P2;Temp;Humidity;BMP_temperature;BMP_pressure;BME280_temperature;BME280_humidity;BME280_pressure;Samples;Min_cycle;Max_cycle;Signal;HPM_P1;HPM_P2
2022/08/09 00:00:16;;;;;;;5.40;2.93;;;18.90;15.20;;;19.25;54.74;102023.75;5049814;28;20550;-72
2022/08/09 00:02:45;;;;;;;5.37;3.53;;;19.00;15.30;;;19.24;54.71;102013.84;5047134;28;20445;-73
2022/08/09 00:05:18;;;;;;;3.63;3.33;;;19.00;15.40;;;19.24;54.87;102016.59;5047826;28;20485;-73
2022/08/09 00:08:10;;;;;;;5.03;3.30;;;19.00;15.50;;;19.21;54.68;102014.31;5048949;28;20451;-72
2022/08/09 00:11:00;;;;;;;4.13;3.20;;;19.00;15.70;;;19.23;55.05;102014.91;5048074;28;20996;-72
2022/08/09 00:13:50;;;;;;;5.00;4.20;;;19.00;15.90;;;19.27;54.95;102019.69;5045204;28;20517;-73
2022/08/09 00:16:19;;;;;;;5.77;4.30;;;19.00;16.10;;;19.17;55.19;102013.13;5050472;28;20514;-73
2022/08/09 00:19:05;;;;;;;3.90;3.27;;;19.00;16.20;;;19.18;55.02;102012.84;5046199;28;20441;-72
2022/08/09 00:21:38;;;;;;;4.10;3.17;;;19.00;16.30;;;19.21;54.94;102020.66;5050065;28;20479;-72
2022/08/09 00:24:25;;;;;;;4.27;3.27;;;19.00;16.50;;;19.21;54.94;102015.16;5051037;28;20989;-72
2022/08/09 00:26:56;;;;;;;3.30;2.80;;;19.00;16.60;;;19.13;55.10;102018.19;5051326;28;20557;-72
2022/08/09 00:29:28;;;;;;;4.57;3.23;;;19.00;16.80;;;19.20;55.39;102012.63;5042569;28;20452;-73
2022/08/09 00:32:17;;;;;;;4.17;3.77;;;18.90;17.10;;;19.26;54.90;102012.56;5048169;28;20680;-73
2022/08/09 00:34:55;;;;;;;5.03;3.00;;;19.00;17.00;;;19.28;55.12;102017.78;5048593;28;20420;-73
2022/08/09 00:37:26;;;;;;;3.67;3.00;;;19.00;17.10;;;19.25;55.25;102010.88;5049294;28;20831;-73
2022/08/09 00:40:01;;;;;;;3.57;3.27;;;19.00;17.20;;;19.16;55.32;102012.28;5048412;28;20449;-73
2022/08/09 00:42:45;;;;;;;4.87;2.70;;;19.00;17.40;;;19.09;55.82;102017.84;5049485;28;20429;-72
2022/08/09 00:45:34;;;;;;;8.80;4.10;;;18.90;17.80;;;19.00;56.13;102008.25;5048426;28;20464;-74
2022/08/09 00:48:05;;;;;;;4.83;3.10;;;18.90;18.30;;;19.03;56.10;102007.78;5045768;28;20513;-72
2022/08/09 00:50:34;;;;;;;6.80;3.37;;;18.80;18.50;;;19.02;55.94;102010.78;5048041;28;20435;-73
2022/08/09 00:53:06;;;;;;;6.67;4.10;;;18.80;18.70;;;19.07;56.07;102002.69;5048601;28;20688;-72
2022/08/09 00:55:41;;;;;;;4.70;3.70;;;18.80;18.90;;;19.25;55.71;102010.88;5045466;28;20756;-73
2022/08/09 00:58:33;;;;;;;4.77;3.80;;;19.00;19.00;;;19.29;55.38;102011.25;5049122;28;20503;-72
2022/08/09 01:01:09;;;;;;;4.10;3.50;;;19.00;18.80;;;19.13;55.96;102012.72;5048077;28;20468;-73
2022/08/09 01:03:56;;;;;;;3.70;2.97;;;19.00;18.90;;;19.14;55.92;102011.66;5048935;28;20467;-72
2022/08/09 01:06:43;;;;;;;4.00;3.43;;;18.90;19.20;;;18.92;56.74;102010.47;5046457;28;20914;-72
2022/08/09 01:09:35;;;;;;;4.57;3.47;;;18.80;19.70;;;18.90;56.78;102018.94;5044768;28;20442;-72
2022/08/09 01:12:18;;;;;;;7.10;4.47;;;18.70;20.20;;;19.04;56.48;102023.19;5042272;28;20414;-73
2022/08/09 01:15:01;;;;;;;4.83;3.87;;;18.80;20.50;;;19.00;56.47;102012.91;5049313;28;20830;-72
2022/08/09 01:17:52;;;;;;;5.80;3.80;;;18.70;20.70;;;18.88;57.21;102009.28;5045372;28;20977;-73
2022/08/09 01:20:43;;;;;;;5.30;3.73;;;18.70;21.20;;;18.78;57.12;102007.06;5046727;28;20517;-73
2022/08/09 01:23:39;;;;;;;4.77;3.70;;;18.60;21.40;;;18.80;57.42;102001.34;5047708;28;20827;-72
2022/08/09 01:27:05;;;;;;;4.90;3.87;;;18.60;22.00;;;18.84;57.27;102008.03;5047564;28;20467;-73
2022/08/09 01:29:44;;;;;;;5.07;3.90;;;18.60;22.10;;;18.75;57.37;102012.16;4983005;28;20759;-72
2022/08/09 01:32:32;;;;;;;3.77;3.37;;;18.60;22.60;;;18.72;57.42;102009.88;5046985;28;20896;-72
2022/08/09 01:35:09;;;;;;;5.57;3.30;;;18.50;22.80;;;18.69;57.56;102007.63;5046404;28;20450;-73
2022/08/09 01:38:04;;;;;;;5.63;3.47;;;18.60;23.20;;;18.63;57.98;102004.72;5049105;28;20445;-70
2022/08/09 01:40:48;;;;;;;3.83;3.43;;;18.50;23.50;;;18.57;58.05;102011.09;5047804;28;20493;-72
2022/08/09 01:43:37;;;;;;;5.17;3.90;;;18.50;24.10;;;18.59;58.23;102014.44;5046608;28;20514;-73
2022/08/09 01:46:22;;;;;;;5.63;3.80;;;18.50;24.50;;;18.71;57.84;102013.69;5048103;28;20414;-72
2022/08/09 01:48:59;;;;;;;4.40;3.40;;;18.50;24.50;;;18.59;58.17;102021.81;5045402;28;20447;-72
2022/08/09 01:51:44;;;;;;;5.07;3.37;;;18.50;24.90;;;18.56;58.32;102020.41;5044412;28;20467;-72
2022/08/09 01:54:29;;;;;;;5.60;3.50;;;18.40;25.60;;;18.58;58.23;102020.19;5047482;28;20553;-73
2022/08/09 01:57:07;;;;;;;7.43;3.37;;;18.40;25.70;;;18.61;58.30;102014.22;5046183;28;20781;-71
2022/08/09 01:59:42;;;;;;;6.37;3.80;;;18.40;26.10;;;18.55;58.44;102018.72;5045484;28;20811;-74
2022/08/09 02:02:25;;;;;;;5.13;4.10;;;18.40;26.50;;;18.51;58.61;102009.25;5047378;28;21157;-72
2022/08/09 02:05:07;;;;;;;5.30;3.23;;;18.30;27.10;;;18.52;58.62;102015.56;5048789;28;20916;-73
2022/08/09 02:07:49;;;;;;;3.20;2.90;;;18.30;27.30;;;18.55;58.57;102015.97;5046099;28;20421;-74
2022/08/09 02:10:43;;;;;;;6.10;4.23;;;18.40;27.60;;;18.51;58.63;102020.19;5043732;28;20438;-73
2022/08/09 02:13:23;;;;;;;4.30;3.30;;;18.40;27.70;;;18.58;58.63;102014.69;5047205;28;20454;-73
2022/08/09 02:16:11;;;;;;;3.90;3.47;;;18.40;28.10;;;18.53;58.68;102011.75;5045895;28;20421;-72
2022/08/09 02:18:43;;;;;;;4.70;3.43;;;18.40;28.20;;;18.48;58.93;102015.19;5043124;28;20466;-72
2022/08/09 02:21:23;;;;;;;3.60;3.00;;;18.30;28.70;;;18.42;59.14;102016.09;5047238;28;20417;-72
2022/08/09 02:23:59;;;;;;;3.80;3.40;;;18.30;29.10;;;18.36;59.32;102011.50;5047212;28;20777;-73
2022/08/09 02:26:34;;;;;;;4.23;3.30;;;18.20;29.70;;;18.33;59.26;102020.19;5046778;28;20442;-72
2022/08/09 02:29:16;;;;;;;4.27;3.23;;;18.20;30.10;;;18.42;59.29;102016.09;5046594;28;20503;-73
2022/08/09 02:31:49;;;;;;;5.90;3.67;;;18.20;30.60;;;18.47;58.92;102019.00;5047977;28;20405;-72
2022/08/09 02:34:27;;;;;;;4.97;3.43;;;18.20;30.80;;;18.41;59.17;102019.88;5048293;28;20947;-71
2022/08/09 02:37:21;;;;;;;6.40;3.03;;;18.20;31.10;;;18.52;59.17;102021.88;5055214;28;20489;-71
2022/08/09 02:40:12;;;;;;;6.43;4.10;;;18.30;31.00;;;18.43;59.11;102017.78;5054900;28;20471;-73
2022/08/09 02:42:50;;;;;;;4.27;3.87;;;18.20;31.10;;;18.43;59.16;102017.78;5050918;28;20440;-73
2022/08/09 02:45:28;;;;;;;3.37;3.07;;;18.20;31.80;;;18.34;59.13;102016.41;5053644;28;20810;-73
2022/08/09 02:48:06;;;;;;;5.27;3.77;;;18.20;32.00;;;18.31;59.64;102022.31;5050798;28;20434;-72
2022/08/09 02:50:59;;;;;;;6.00;4.20;;;18.20;32.80;;;18.25;59.68;102026.78;5051722;28;20806;-73
2022/08/09 02:53:37;;;;;;;4.10;3.27;;;18.10;33.20;;;18.53;59.03;102022.72;5050609;28;20466;-71
2022/08/09 02:56:13;;;;;;;5.40;4.00;;;18.20;33.90;;;18.39;59.43;102021.19;5054299;28;20477;-72
2022/08/09 02:58:45;;;;;;;4.87;3.77;;;18.20;33.50;;;18.44;59.36;102024.94;5053611;28;20479;-72
2022/08/09 03:01:18;;;;;;;4.23;3.63;;;18.20;33.70;;;18.47;59.15;102024.47;5050774;28;20451;-71
2022/08/09 03:04:11;;;;;;;5.53;3.97;;;18.20;33.50;;;18.35;59.52;102019.97;5051896;28;20433;-72
2022/08/09 03:06:48;;;;;;;4.73;3.53;;;18.20;34.20;;;18.21;59.87;102032.94;5053021;28;20941;-72
2022/08/09 03:09:20;;;;;;;4.17;3.40;;;18.10;35.10;;;18.25;59.85;102036.91;5050323;28;20487;-71
2022/08/09 03:11:51;;;;;;;9.40;5.07;;;18.10;36.10;;;18.16;60.15;102027.31;5055022;28;20872;-73
2022/08/09 03:14:40;;;;;;;6.13;4.00;;;18.00;36.70;;;18.21;60.26;102027.47;5053930;28;20458;-73
2022/08/09 03:17:12;;;;;;;3.93;3.63;;;18.00;37.30;;;18.20;60.04;102034.03;5055493;28;20876;-72
2022/08/09 03:19:49;;;;;;;4.60;3.83;;;18.00;37.40;;;18.17;60.16;102037.19;5053076;28;20423;-71
2022/08/09 03:22:35;;;;;;;4.53;3.50;;;18.00;37.80;;;18.19;60.41;102032.34;5052501;28;20439;-73
2022/08/09 03:25:13;;;;;;;4.00;3.53;;;18.00;38.60;;;18.24;60.22;102030.63;5055739;28;20446;-73
2022/08/09 03:28:05;;;;;;;4.97;3.30;;;18.00;38.90;;;18.26;60.16;102027.63;5053712;28;20416;-73
2022/08/09 03:30:40;;;;;;;6.00;4.63;;;18.00;39.40;;;18.30;59.75;102034.31;5056515;28;20833;-73
2022/08/09 03:33:13;;;;;;;6.03;4.67;;;18.10;39.00;;;18.22;60.22;102030.00;5060960;28;20442;-73
2022/08/09 03:35:50;;;;;;;4.17;3.23;;;18.10;40.00;;;18.24;60.24;102035.25;5058305;28;20499;-72
2022/08/09 03:38:41;;;;;;;6.20;3.80;;;18.10;39.60;;;18.32;60.05;102036.84;5050612;28;20444;-71
2022/08/09 03:41:14;;;;;;;6.50;4.47;;;18.10;39.50;;;18.33;59.88;102028.41;5053507;28;20439;-74
2022/08/09 03:43:45;;;;;;;9.03;4.00;;;18.10;39.40;;;18.22;60.22;102031.88;5047918;28;20466;-71
2022/08/09 03:46:34;;;;;;;5.43;4.50;;;18.10;39.60;;;18.32;59.88;102036.84;5050497;28;20496;-72
2022/08/09 03:49:06;;;;;;;5.43;4.20;;;18.10;40.00;;;18.43;59.67;102038.84;5050848;28;20450;-73
2022/08/09 03:51:42;;;;;;;6.33;4.00;;;18.20;39.70;;;18.38;59.93;102042.28;5048687;28;20963;-73
2022/08/09 03:54:32;;;;;;;6.10;4.37;;;18.10;39.90;;;18.34;59.88;102045.69;5048216;28;20449;-72
2022/08/09 03:57:05;;;;;;;3.83;3.53;;;18.10;40.00;;;18.37;59.86;102040.59;5046116;28;20410;-72
2022/08/09 03:59:49;;;;;;;5.47;4.20;;;18.20;40.00;;;18.33;59.98;102039.38;5047427;28;20436;-73
2022/08/09 04:02:26;;;;;;;5.73;5.10;;;18.10;40.30;;;18.36;59.79;102046.28;5048481;28;20720;-72
2022/08/09 04:05:01;;;;;;;5.50;4.80;;;18.20;40.20;;;18.44;59.63;102052.34;5049809;28;20434;-72
2022/08/09 04:07:36;;;;;;;5.43;4.73;;;18.20;40.50;;;18.41;59.72;102058.25;5051980;28;20409;-73
2022/08/09 04:10:22;;;;;;;5.13;4.47;;;18.20;40.10;;;18.32;59.85;102056.88;5048778;28;20432;-73
2022/08/09 04:13:00;;;;;;;4.10;3.70;;;18.10;40.10;;;18.24;60.30;102057.16;5047988;28;20528;-72
2022/08/09 04:15:32;;;;;;;7.43;4.50;;;18.10;41.20;;;18.33;59.96;102055.81;5047116;28;20442;-71
2022/08/09 04:18:21;;;;;;;5.87;3.90;;;18.10;41.30;;;18.32;59.97;102053.28;5051197;28;20437;-73
2022/08/09 04:20:53;;;;;;;4.90;4.03;;;18.10;41.00;;;18.43;59.65;102066.25;5047767;28;20414;-72
2022/08/09 04:23:24;;;;;;;6.73;4.60;;;18.20;41.00;;;18.45;59.92;102070.44;5049108;28;20828;-73
2022/08/09 04:25:54;;;;;;;5.20;3.83;;;18.20;41.10;;;18.41;59.85;102069.22;5052308;28;20424;-71
2022/08/09 04:28:25;;;;;;;5.37;4.10;;;18.20;40.90;;;18.36;59.98;102066.31;5049478;28;20406;-73
2022/08/09 04:31:05;;;;;;;5.63;4.07;;;18.20;41.20;;;18.37;59.97;102076.22;5048329;28;20493;-71
2022/08/09 04:33:39;;;;;;;5.50;4.20;;;18.20;41.80;;;18.40;60.18;102066.69;5048490;28;21042;-73
2022/08/09 04:36:28;;;;;;;6.37;4.07;;;18.20;41.90;;;18.49;59.83;102070.84;5051363;28;20517;-73
2022/08/09 04:39:02;;;;;;;5.37;4.27;;;18.20;41.70;;;18.45;59.95;102073.19;5051803;28;20481;-72
2022/08/09 04:41:32;;;;;;;4.47;3.70;;;18.20;41.80;;;18.48;59.68;102080.97;5049914;28;20492;-73
2022/08/09 04:44:11;;;;;;;4.60;3.60;;;18.30;41.60;;;18.56;59.75;102082.59;5050421;28;21025;-72
2022/08/09 04:46:42;;;;;;;6.33;4.50;;;18.30;41.70;;;18.58;59.58;102078.59;5051852;28;20541;-72
2022/08/09 04:49:32;;;;;;;6.00;4.40;;;18.40;41.20;;;18.66;59.21;102071.94;5048424;28;20793;-73
2022/08/09 04:52:22;;;;;;;13.07;4.80;;;18.40;40.80;;;18.57;59.50;102079.66;5049012;28;20938;-71
2022/08/09 04:55:02;;;;;;;6.00;4.47;;;18.40;40.80;;;18.58;59.77;102088.72;5049813;28;20796;-73
2022/08/09 04:57:39;;;;;;;6.00;4.50;;;18.30;41.70;;;18.60;59.77;102092.88;5047320;28;20409;-72
2022/08/09 05:00:26;;;;;;;4.80;3.50;;;18.30;41.70;;;18.57;59.94;102098.00;5049695;28;20422;-73
2022/08/09 05:03:03;;;;;;;4.93;3.83;;;18.30;42.40;;;18.54;59.94;102099.25;5046689;28;20476;-73
2022/08/09 05:05:52;;;;;;;8.00;5.00;;;18.30;42.80;;;18.55;60.13;102103.69;5042751;28;20422;-71
2022/08/09 05:08:35;;;;;;;9.57;4.83;;;18.30;43.60;;;18.65;60.08;102105.91;5049303;28;21130;-72
2022/08/09 05:11:06;;;;;;;5.43;3.83;;;18.40;43.50;;;18.57;60.40;102098.84;5048730;28;20533;-72
2022/08/09 05:13:35;;;;;;;6.03;4.30;;;18.40;44.30;;;18.72;59.93;102100.38;5046237;28;20460;-72
2022/08/09 05:16:07;;;;;;;5.20;4.07;;;18.40;43.50;;;18.72;59.90;102103.13;5047228;28;20512;-72
2022/08/09 05:18:37;;;;;;;6.27;5.20;;;18.50;43.50;;;18.80;59.71;102100.91;5050636;28;20468;-72
2022/08/09 05:21:27;;;;;;;5.27;4.77;;;18.50;43.00;;;18.80;59.88;102108.28;5046893;28;20432;-72
2022/08/09 05:24:05;;;;;;;5.53;4.50;;;18.50;42.60;;;18.79;59.75;102110.19;5046561;28;21067;-71
2022/08/09 05:26:36;;;;;;;6.23;4.80;;;18.50;42.50;;;18.87;59.65;102115.41;5050182;28;20443;-70
2022/08/09 05:29:18;;;;;;;6.20;5.03;;;18.60;42.80;;;18.95;59.54;102114.25;5045570;28;20959;-73
2022/08/09 05:31:51;;;;;;;5.10;4.07;;;18.70;42.50;;;18.89;59.57;102104.19;5045419;28;20480;-72
2022/08/09 05:34:27;;;;;;;6.40;5.80;;;18.60;42.10;;;18.96;59.42;102113.19;5043420;28;20973;-74
2022/08/09 05:37:01;;;;;;;6.27;4.70;;;18.70;42.00;;;19.12;58.75;102126.31;5049163;28;20965;-73
2022/08/09 05:39:35;;;;;;;4.50;4.10;;;18.80;41.00;;;19.22;58.47;102126.59;5045750;28;20448;-72
2022/08/09 05:42:14;;;;;;;4.73;4.23;;;18.90;40.10;;;19.38;58.06;102120.47;5049641;28;20459;-73
2022/08/09 05:44:50;;;;;;;5.20;4.37;;;19.00;39.40;;;19.33;57.98;102124.97;5050741;28;20409;-71
2022/08/09 05:47:22;;;;;;;7.60;5.40;;;19.00;38.20;;;19.47;57.84;102124.59;5047419;28;20442;-72
2022/08/09 05:49:52;;;;;;;5.47;4.90;;;19.10;38.20;;;19.56;57.32;102127.88;5047704;28;20429;-73
2022/08/09 05:52:43;;;;;;;6.40;4.50;;;19.20;37.00;;;19.56;57.27;102130.63;5041968;28;20787;-72
2022/08/09 05:55:22;;;;;;;5.77;4.53;;;19.30;36.20;;;19.58;57.31;102124.91;5050075;28;20715;-73
2022/08/09 05:57:53;;;;;;;5.43;4.83;;;19.30;35.30;;;19.90;56.33;102129.91;5044578;28;20441;-72
2022/08/09 06:00:27;;;;;;;11.10;4.47;;;19.40;34.40;;;19.88;55.77;102125.75;5042793;28;20469;-73
2022/08/09 06:02:58;;;;;;;9.20;4.97;;;19.60;32.00;;;19.94;55.66;102131.09;5049618;28;20434;-73
2022/08/09 06:05:28;;;;;;;6.40;5.47;;;19.60;31.60;;;19.81;55.81;102130.47;5050688;28;20422;-73
2022/08/09 06:08:17;;;;;;;7.63;4.70;;;19.60;30.50;;;19.94;55.33;102128.38;5047005;28;20509;-74
2022/08/09 06:10:54;;;;;;;5.07;4.57;;;19.60;30.30;;;19.89;55.75;102132.91;5047496;28;20415;-72
2022/08/09 06:13:26;;;;;;;5.43;4.93;;;19.60;30.00;;;20.10;55.32;102135.09;5047920;28;20969;-72
2022/08/09 06:16:01;;;;;;;8.80;5.33;;;19.70;29.90;;;20.33;54.24;102139.88;5047797;28;20517;-71
2022/08/09 06:18:34;;;;;;;6.70;4.07;;;19.90;28.80;;;20.44;54.03;102136.25;5056206;28;20460;-73
2022/08/09 06:21:05;;;;;;;4.27;3.87;;;20.00;28.40;;;20.48;54.02;102131.97;5065180;28;20435;-73
2022/08/09 06:23:34;;;;;;;6.97;4.93;;;20.20;27.40;;;20.53;53.12;102134.00;5064645;28;20519;-72
2022/08/09 06:26:25;;;;;;;6.50;4.30;;;20.20;26.00;;;20.52;53.37;102132.34;5059699;28;20724;-74
2022/08/09 06:28:58;;;;;;;5.90;3.97;;;20.10;25.50;;;20.64;52.00;102136.75;5060543;28;20929;-73
2022/08/09 06:31:34;;;;;;;10.33;5.00;;;20.30;24.10;;;20.62;52.31;102143.59;5049560;28;20427;-73
2022/08/09 06:34:23;;;;;;;8.60;4.67;;;20.20;24.00;;;20.89;51.40;102144.78;5047522;28;20429;-72
2022/08/09 06:36:58;;;;;;;10.47;5.30;;;20.40;22.90;;;20.91;51.47;102148.13;5047712;28;20436;-72
2022/08/09 06:39:29;;;;;;;7.33;4.23;;;20.50;22.40;;;20.99;50.40;102156.00;5048579;28;20489;-72
2022/08/09 06:42:19;;;;;;;4.90;3.40;;;20.70;20.70;;;21.06;50.09;102145.69;5047875;28;20462;-72
2022/08/09 06:44:54;;;;;;;5.17;2.97;;;20.70;20.10;;;21.21;49.77;102154.31;5048763;28;20491;-73
2022/08/09 06:47:25;;;;;;;5.17;3.20;;;20.80;19.10;;;21.37;49.00;102152.72;5045267;28;20421;-72
2022/08/09 06:50:10;;;;;;;5.30;3.60;;;20.90;18.20;;;21.72;48.35;102149.88;5047852;28;20420;-72
2022/08/09 06:52:47;;;;;;;15.67;4.83;;;21.20;17.50;;;21.67;48.08;102158.03;5047522;28;20466;-71
2022/08/09 06:55:19;;;;;;;4.83;3.50;;;21.30;16.40;;;21.60;47.72;102165.59;5046829;28;20472;-72
2022/08/09 06:57:51;;;;;;;3.40;3.10;;;21.30;15.20;;;22.01;46.75;102154.31;5047046;28;21222;-72
2022/08/09 07:00:33;;;;;;;4.83;3.67;;;21.50;14.50;;;22.41;45.85;102161.63;5048958;28;20441;-72
2022/08/09 07:03:23;;;;;;;5.10;3.50;;;21.90;13.40;;;22.32;45.75;102165.84;5047279;28;20489;-73
2022/08/09 07:05:57;;;;;;;4.40;3.07;;;22.00;11.90;;;22.56;44.80;102166.56;5046238;28;20463;-71
2022/08/09 07:08:34;;;;;;;3.50;2.90;;;22.20;11.30;;;22.44;45.13;102166.63;5046646;28;20901;-73
2022/08/09 07:11:07;;;;;;;3.57;2.83;;;22.30;10.70;;;22.76;44.96;102173.25;5048152;28;20503;-74
2022/08/09 07:13:40;;;;;;;4.27;3.33;;;22.40;10.60;;;23.16;43.89;102172.16;5042859;28;20522;-72
2022/08/09 07:16:31;;;;;;;3.93;2.80;;;22.60;10.00;;;23.27;43.19;102176.75;5043099;28;20475;-73
2022/08/09 07:19:16;;;;;;;5.60;2.90;;;22.80;8.50;;;22.89;43.63;102169.31;5045119;28;20410;-72
2022/08/09 07:21:51;;;;;;;13.83;4.60;;;22.70;7.90;;;22.39;44.40;102172.06;5046458;28;20421;-72
2022/08/09 07:24:29;;;;;;;4.40;3.43;;;22.30;7.80;;;22.54;44.53;102177.84;5047531;28;20446;-71
2022/08/09 07:27:08;;;;;;;4.70;3.27;;;22.30;8.40;;;22.17;45.04;102183.00;5049855;28;20449;-72
2022/08/09 07:29:55;;;;;;;4.30;3.17;;;22.10;8.50;;;22.45;44.96;102182.94;5048572;28;20409;-72
2022/08/09 07:32:28;;;;;;;4.37;3.17;;;22.10;8.90;;;22.54;44.56;102183.34;5049743;28;20404;-73
2022/08/09 07:35:00;;;;;;;4.87;3.67;;;22.20;8.20;;;22.62;44.24;102182.91;5049585;28;20472;-72
2022/08/09 07:37:36;;;;;;;5.40;3.00;;;22.30;7.90;;;22.41;43.99;102183.69;5046298;28;20535;-73
2022/08/09 07:40:16;;;;;;;3.47;3.17;;;22.20;7.20;;;22.52;44.40;102183.59;5051830;28;20565;-73
2022/08/09 07:42:50;;;;;;;4.33;3.90;;;22.20;7.50;;;22.65;44.07;102182.44;5050083;28;20517;-73
2022/08/09 07:45:25;;;;;;;4.17;3.40;;;22.30;7.50;;;22.72;43.82;102182.28;5051476;28;20759;-73
2022/08/09 07:48:11;;;;;;;2.77;2.40;;;22.40;6.90;;;22.74;44.12;102185.63;5049780;28;20453;-72
2022/08/09 07:50:59;;;;;;;3.70;3.33;;;22.50;7.20;;;22.89;43.60;102175.69;5050737;28;20410;-73
2022/08/09 07:53:50;;;;;;;3.50;3.20;;;22.60;6.80;;;22.80;43.57;102190.16;5058224;28;20436;-72
2022/08/09 07:56:37;;;;;;;4.67;3.17;;;22.60;6.20;;;23.08;43.27;102187.25;5048051;28;20514;-73
2022/08/09 07:59:12;;;;;;;3.03;2.73;;;22.70;6.20;;;22.98;42.64;102181.59;5046895;28;20444;-73
2022/08/09 08:01:54;;;;;;;3.27;2.97;;;22.70;5.10;;;22.88;42.87;102182.28;5045760;28;20787;-72
2022/08/09 08:04:25;;;;;;;4.40;3.33;;;22.60;4.90;;;22.76;42.36;102181.53;5050407;28;20438;-73
2022/08/09 08:07:03;;;;;;;8.20;3.37;;;22.60;4.40;;;22.76;43.07;102187.03;5047132;28;20410;-74
2022/08/09 08:10:10;;;;;;;3.70;2.90;;;22.60;4.60;;;22.73;42.83;102179.28;5049375;28;21016;-72
2022/08/09 08:12:42;;;;;;;3.40;2.50;;;22.50;4.70;;;22.83;42.59;102175.84;5046074;28;20579;-73
2022/08/09 08:15:16;;;;;;;4.77;3.23;;;22.60;4.70;;;23.03;42.22;102178.91;5048447;28;20410;-74
2022/08/09 08:17:52;;;;;;;3.33;2.90;;;22.70;4.40;;;23.19;42.36;102185.50;5046249;28;20813;-73
2022/08/09 08:20:30;;;;;;;3.13;2.43;;;22.90;4.40;;;23.39;41.32;102188.50;5051463;28;20536;-72
2022/08/09 08:23:03;;;;;;;3.77;2.87;;;23.00;3.60;;;23.28;41.53;102181.19;5051064;28;20514;-72
2022/08/09 08:25:46;;;;;;;2.70;2.00;;;23.00;2.90;;;23.46;41.09;102189.19;5053415;28;20417;-73
2022/08/09 08:28:22;;;;;;;4.70;3.13;;;23.10;2.70;;;23.48;41.09;102184.22;5054610;28;20416;-73
2022/08/09 08:31:01;;;;;;;3.33;2.23;;;23.20;2.60;;;23.54;40.87;102191.50;5057190;28;20469;-73
2022/08/09 08:33:42;;;;;;;3.20;2.90;;;23.30;2.20;;;23.77;39.85;102179.31;5052558;28;20540;-73
2022/08/09 08:36:24;;;;;;;5.43;2.40;;;23.40;1.30;;;23.71;39.73;102181.22;5058092;28;20442;-73
2022/08/09 08:38:59;;;;;;;2.47;2.20;;;23.50;1.00;;;23.91;39.79;102182.53;5049638;28;20418;-73
2022/08/09 08:41:29;;;;;;;5.07;3.50;;;23.60;1.00;;;24.11;39.53;102186.31;5045192;28;20474;-73
2022/08/09 08:44:18;;;;;;;5.33;2.30;;;23.80;1.00;;;24.09;39.56;102187.69;5049794;28;20463;-73
2022/08/09 08:47:01;;;;;;;2.93;2.47;;;23.80;1.00;;;24.03;39.21;102183.19;5046444;28;20434;-74
2022/08/09 08:49:41;;;;;;;4.97;2.70;;;23.90;1.00;;;24.25;38.53;102193.13;5043866;28;20470;-71
2022/08/09 08:52:20;;;;;;;3.27;2.57;;;23.90;1.00;;;24.11;38.84;102182.72;5046743;28;20944;-72
2022/08/09 08:55:10;;;;;;;3.20;2.63;;;23.90;1.00;;;24.35;38.66;102186.84;5043360;28;20765;-72
2022/08/09 08:57:43;;;;;;;5.30;2.50;;;24.00;1.00;;;24.61;37.95;102185.16;5044861;28;20505;-74
2022/08/09 09:00:27;;;;;;;3.53;2.50;;;24.20;1.00;;;24.67;37.29;102189.63;5041710;28;20470;-73
2022/08/09 09:03:04;;;;;;;3.03;2.17;;;24.40;1.00;;;24.48;37.92;102188.38;5050133;28;20495;-72
2022/08/09 09:05:47;;;;;;;3.80;2.17;;;24.30;1.00;;;24.31;38.07;102185.72;5048649;28;20413;-72
2022/08/09 09:08:37;;;;;;;7.70;2.80;;;24.20;1.00;;;24.42;38.17;102176.41;5052876;28;20439;-71
2022/08/09 09:11:11;;;;;;;4.43;2.77;;;24.10;1.00;;;24.69;37.86;102188.25;5047655;28;20440;-72
2022/08/09 09:13:50;;;;;;;3.30;2.80;;;24.30;1.00;;;24.93;37.35;102182.38;5050187;28;20961;-73
2022/08/09 09:16:29;;;;;;;3.77;3.10;;;24.50;1.00;;;24.98;37.34;102185.19;5050028;28;20454;-73
2022/08/09 09:19:04;;;;;;;5.80;3.87;;;24.70;1.00;;;24.90;37.32;102188.44;5049789;28;20442;-73
2022/08/09 09:22:05;;;;;;;3.87;2.67;;;24.70;1.00;;;24.76;37.67;102187.19;5042251;28;20471;-72
2022/08/09 09:24:43;;;;;;;6.40;3.20;;;24.50;1.00;;;24.76;37.48;102198.25;5046532;28;20473;-74
2022/08/09 09:27:14;;;;;;;4.17;3.07;;;24.60;1.00;;;24.83;36.97;102187.81;5046312;28;20546;-72
2022/08/09 09:30:13;;;;;;;3.83;2.27;;;24.60;1.00;;;24.81;36.83;102184.47;5045524;28;20504;-71
2022/08/09 09:33:05;;;;;;;6.30;3.30;;;24.60;1.00;;;24.70;36.93;102189.09;5048474;28;20847;-73
2022/08/09 09:35:55;;;;;;;3.40;2.40;;;24.50;1.00;;;25.09;36.83;102176.66;5045546;28;20506;-73
2022/08/09 09:38:47;;;;;;;4.70;3.13;;;24.70;1.00;;;25.40;35.85;102176.81;5048598;28;20439;-73
2022/08/09 09:41:32;;;;;;;3.10;2.63;;;24.90;1.00;;;25.68;35.19;102173.63;5049782;28;20806;-70
2022/08/09 09:44:25;;;;;;;3.70;2.50;;;25.20;1.00;;;25.41;35.81;102175.72;5042106;28;20460;-72
2022/08/09 09:47:07;;;;;;;3.50;2.93;;;25.20;1.00;;;25.57;35.46;102176.63;5048284;28;20478;-71
2022/08/09 09:49:39;;;;;;;2.70;2.00;;;25.20;1.00;;;25.65;35.71;102176.09;5042914;28;20465;-72
2022/08/09 09:52:28;;;;;;;4.47;2.73;;;25.30;1.00;;;26.04;35.19;102166.22;5043533;28;20427;-72
2022/08/09 09:55:08;;;;;;;5.13;2.63;;;25.60;1.00;;;26.19;34.70;102168.19;5045724;28;20454;-72
2022/08/09 09:58:04;;;;;;;3.13;2.83;;;25.80;1.00;;;26.05;34.81;102167.03;5045381;28;20462;-72
2022/08/09 10:00:50;;;;;;;2.40;2.20;;;25.80;1.00;;;25.95;34.88;102173.41;5044446;28;20803;-72
2022/08/09 10:03:44;;;;;;;4.43;2.87;;;25.70;1.00;;;25.98;35.20;102172.88;5047695;28;20861;-72
2022/08/09 10:06:27;;;;;;;3.40;2.90;;;25.60;1.00;;;25.87;34.86;102168.41;5041194;28;20458;-72
2022/08/09 10:09:02;;;;;;;2.40;1.97;;;25.70;1.00;;;25.94;34.56;102161.50;5044039;28;20504;-71
2022/08/09 10:11:57;;;;;;;3.00;2.10;;;25.60;1.00;;;25.95;34.65;102168.69;5044725;28;20435;-70
2022/08/09 10:14:42;;;;;;;3.50;2.63;;;25.70;1.00;;;25.73;35.32;102167.25;5046690;28;20451;-72
2022/08/09 10:17:17;;;;;;;3.23;2.40;;;25.40;1.00;;;25.99;34.85;102168.16;5043771;28;20565;-72
2022/08/09 10:20:25;;;;;;;3.17;2.40;;;25.60;1.00;;;26.32;34.53;102162.13;5047828;28;20414;-73
2022/08/09 10:23:17;;;;;;;5.23;3.03;;;25.80;1.00;;;26.24;34.14;102163.47;5044860;28;20467;-72
2022/08/09 10:25:50;;;;;;;2.90;2.60;;;25.90;1.00;;;26.30;34.29;102154.06;5049300;28;20534;-72
2022/08/09 10:28:40;;;;;;;3.30;2.90;;;25.90;1.00;;;26.40;34.43;102150.44;5048338;28;20453;-72
2022/08/09 10:31:17;;;;;;;4.13;2.50;;;26.00;1.00;;;26.39;34.29;102146.84;5046083;28;20450;-73
2022/08/09 10:34:07;;;;;;;3.00;2.60;;;26.10;1.00;;;26.36;33.89;102147.41;5046825;28;21360;-72
2022/08/09 10:36:56;;;;;;;4.03;2.87;;;26.00;1.00;;;26.15;34.65;102142.06;5049423;28;20783;-72
2022/08/09 10:39:27;;;;;;;3.97;3.20;;;25.90;1.00;;;26.07;34.43;102146.25;5048171;28;20996;-73
2022/08/09 10:41:56;;;;;;;4.63;2.83;;;25.90;1.00;;;25.59;34.98;102153.06;5047653;28;20438;-72
2022/08/09 10:44:30;;;;;;;4.37;3.43;;;25.50;1.00;;;25.68;35.43;102150.59;5045161;28;20490;-73
2022/08/09 10:47:31;;;;;;;5.10;2.87;;;25.30;1.00;;;25.74;35.41;102155.06;5059278;28;20459;-72
2022/08/09 10:51:05;;;;;;;4.67;3.40;;;25.40;1.00;;;25.78;35.02;102142.31;5048518;28;20478;-71
2022/08/09 10:53:38;;;;;;;6.27;3.33;;;25.40;1.00;;;25.80;34.88;102148.44;5044098;28;20955;-73
2022/08/09 10:56:24;;;;;;;3.13;2.67;;;25.50;1.00;;;26.72;33.57;102139.06;5046381;28;20435;-72
2022/08/09 10:58:55;;;;;;;2.90;2.10;;;26.00;1.00;;;27.06;32.78;102139.28;5045528;28;20444;-72
2022/08/09 11:01:40;;;;;;;3.53;2.70;;;26.40;1.00;;;27.35;32.74;102142.22;5048671;28;20449;-72
2022/08/09 11:04:32;;;;;;;5.60;3.30;;;26.50;1.00;;;27.84;32.45;102134.72;5051177;28;20451;-71
2022/08/09 11:07:30;;;;;;;3.43;3.10;;;27.00;1.00;;;28.01;31.34;102135.19;5050946;28;20546;-73
2022/08/09 11:10:53;;;;;;;3.27;2.60;;;27.40;1.00;;;27.89;31.99;102129.13;5047050;28;20441;-72